sensor_id;sensor_type;location;lat;lon;timestamp;P1;durP1;ratioP1;P2;durP2;ratioP2
3034;SDS011;1527;48.836;9.172;2022-07-23T00:00:06;8.00;;;7.07;;
3034;SDS011;1527;48.836;9.172;2022-07-23T00:02:37;6.93;;;6.10;;
3034;SDS011;1527;48.836;9.172;2022-07-23T00:05:07;5.83;;;5.37;;
3034;SDS011;1527;48.836;9.172;2022-07-23T00:07:37;6.87;;;6.27;;
3034;SDS011;1527;48.836;9.172;2022-07-23T00:10:07;5.97;;;5.47;;
3034;SDS011;1527;48.836;9.172;2022-07-23T00:12:37;6.67;;;6.17;;
3034;SDS011;1527;48.836;9.172;2022-07-23T00:15:19;7.27;;;6.00;;
3034;SDS011;1527;48.836;9.172;2022-07-23T00:17:49;6.87;;;6.20;;
3034;SDS011;1527;48.836;9.172;2022-07-23T00:20:18;6.20;;;5.63;;
3034;SDS011;1527;48.836;9.172;2022-07-23T00:22:48;6.20;;;5.70;;
3034;SDS011;1527;48.836;9.172;2022-07-23T00:25:18;6.90;;;6.30;;
3034;SDS011;1527;48.836;9.172;2022-07-23T00:27:56;6.63;;;6.03;;
3034;SDS011;1527;48.836;9.172;2022-07-23T00:30:27;8.07;;;6.07;;
3034;SDS011;1527;48.836;9.172;2022-07-23T00:32:58;6.23;;;5.63;;
3034;SDS011;1527;48.836;9.172;2022-07-23T00:35:30;5.60;;;5.20;;
3034;SDS011;1527;48.836;9.172;2022-07-23T00:38:04;6.33;;;5.83;;
3034;SDS011;1527;48.836;9.172;2022-07-23T00:40:34;6.63;;;5.97;;
3034;SDS011;1527;48.836;9.172;2022-07-23T00:43:03;6.77;;;5.60;;
3034;SDS011;1527;48.836;9.172;2022-07-23T00:45:34;5.87;;;5.27;;
3034;SDS011;1527;48.836;9.172;2022-07-23T00:48:03;6.87;;;6.20;;
3034;SDS011;1527;48.836;9.172;2022-07-23T00:50:34;6.40;;;5.77;;
3034;SDS011;1527;48.836;9.172;2022-07-23T00:53:03;7.70;;;5.93;;
3034;SDS011;1527;48.836;9.172;2022-07-23T00:55:33;6.37;;;5.87;;
3034;SDS011;1527;48.836;9.172;2022-07-23T00:58:03;6.60;;;5.90;;
3034;SDS011;1527;48.836;9.172;2022-07-23T01:00:34;6.30;;;5.70;;
3034;SDS011;1527;48.836;9.172;2022-07-23T01:03:04;5.07;;;4.67;;
3034;SDS011;1527;48.836;9.172;2022-07-23T01:05:33;6.10;;;5.60;;
3034;SDS011;1527;48.836;9.172;2022-07-23T01:08:02;7.03;;;6.33;;
3034;SDS011;1527;48.836;9.172;2022-07-23T01:10:33;5.97;;;5.47;;
3034;SDS011;1527;48.836;9.172;2022-07-23T01:13:04;5.73;;;5.33;;
3034;SDS011;1527;48.836;9.172;2022-07-23T01:15:38;6.43;;;5.93;;
3034;SDS011;1527;48.836;9.172;2022-07-23T01:18:08;6.03;;;5.53;;
3034;SDS011;1527;48.836;9.172;2022-07-23T01:20:53;5.67;;;5.17;;
3034;SDS011;1527;48.836;9.172;2022-07-23T01:23:23;7.20;;;5.57;;
3034;SDS011;1527;48.836;9.172;2022-07-23T01:25:56;6.17;;;5.57;;
3034;SDS011;1527;48.836;9.172;2022-07-23T01:28:26;5.87;;;5.37;;
3034;SDS011;1527;48.836;9.172;2022-07-23T01:30:57;7.33;;;6.30;;
3034;SDS011;1527;48.836;9.172;2022-07-23T01:33:32;6.13;;;5.63;;
3034;SDS011;1527;48.836;9.172;2022-07-23T01:36:01;5.80;;;5.40;;
3034;SDS011;1527;48.836;9.172;2022-07-23T01:38:32;5.50;;;5.10;;
3034;SDS011;1527;48.836;9.172;2022-07-23T01:41:01;8.93;;;5.80;;
3034;SDS011;1527;48.836;9.172;2022-07-23T01:43:32;6.13;;;5.63;;
3034;SDS011;1527;48.836;9.172;2022-07-23T01:46:01;7.30;;;6.40;;
3034;SDS011;1527;48.836;9.172;2022-07-23T01:48:38;6.40;;;5.80;;
3034;SDS011;1527;48.836;9.172;2022-07-23T01:51:27;7.20;;;5.53;;
3034;SDS011;1527;48.836;9.172;2022-07-23T01:54:04;6.40;;;5.90;;
3034;SDS011;1527;48.836;9.172;2022-07-23T01:56:34;6.40;;;5.80;;
3034;SDS011;1527;48.836;9.172;2022-07-23T01:59:03;6.40;;;5.80;;
3034;SDS011;1527;48.836;9.172;2022-07-23T02:01:32;6.40;;;5.90;;
3034;SDS011;1527;48.836;9.172;2022-07-23T02:04:02;5.80;;;5.27;;
3034;SDS011;1527;48.836;9.172;2022-07-23T02:06:32;7.30;;;6.07;;
3034;SDS011;1527;48.836;9.172;2022-07-23T02:09:01;7.07;;;6.37;;
3034;SDS011;1527;48.836;9.172;2022-07-23T02:11:32;6.50;;;5.57;;
3034;SDS011;1527;48.836;9.172;2022-07-23T02:14:02;6.67;;;6.07;;
3034;SDS011;1527;48.836;9.172;2022-07-23T02:16:31;6.30;;;5.77;;
3034;SDS011;1527;48.836;9.172;2022-07-23T02:19:02;5.97;;;5.47;;
3034;SDS011;1527;48.836;9.172;2022-07-23T02:21:31;6.00;;;5.50;;
3034;SDS011;1527;48.836;9.172;2022-07-23T02:24:00;6.20;;;5.60;;
3034;SDS011;1527;48.836;9.172;2022-07-23T02:26:29;8.13;;;6.67;;
3034;SDS011;1527;48.836;9.172;2022-07-23T02:29:05;6.23;;;5.63;;
3034;SDS011;1527;48.836;9.172;2022-07-23T02:31:35;6.43;;;5.47;;
3034;SDS011;1527;48.836;9.172;2022-07-23T02:34:06;7.13;;;6.27;;
3034;SDS011;1527;48.836;9.172;2022-07-23T02:36:39;6.53;;;6.00;;
3034;SDS011;1527;48.836;9.172;2022-07-23T02:39:09;6.63;;;6.07;;
3034;SDS011;1527;48.836;9.172;2022-07-23T02:41:39;6.30;;;5.70;;
3034;SDS011;1527;48.836;9.172;2022-07-23T02:44:09;6.80;;;5.93;;
3034;SDS011;1527;48.836;9.172;2022-07-23T02:46:41;11.00;;;5.60;;
3034;SDS011;1527;48.836;9.172;2022-07-23T02:49:10;8.27;;;6.40;;
3034;SDS011;1527;48.836;9.172;2022-07-23T02:51:40;6.80;;;6.20;;
3034;SDS011;1527;48.836;9.172;2022-07-23T02:54:11;7.50;;;6.83;;
3034;SDS011;1527;48.836;9.172;2022-07-23T02:56:41;6.80;;;5.87;;
3034;SDS011;1527;48.836;9.172;2022-07-23T02:59:12;8.23;;;6.00;;
3034;SDS011;1527;48.836;9.172;2022-07-23T03:01:42;7.13;;;6.53;;
3034;SDS011;1527;48.836;9.172;2022-07-23T03:04:11;7.30;;;6.70;;
3034;SDS011;1527;48.836;9.172;2022-07-23T03:06:42;6.07;;;5.57;;
3034;SDS011;1527;48.836;9.172;2022-07-23T03:09:11;6.67;;;6.10;;
3034;SDS011;1527;48.836;9.172;2022-07-23T03:11:41;6.53;;;5.93;;
3034;SDS011;1527;48.836;9.172;2022-07-23T03:14:10;6.43;;;5.93;;
3034;SDS011;1527;48.836;9.172;2022-07-23T03:16:43;7.10;;;6.50;;
3034;SDS011;1527;48.836;9.172;2022-07-23T03:19:12;6.33;;;5.67;;
3034;SDS011;1527;48.836;9.172;2022-07-23T03:21:42;6.03;;;5.33;;
3034;SDS011;1527;48.836;9.172;2022-07-23T03:24:12;6.70;;;5.80;;
3034;SDS011;1527;48.836;9.172;2022-07-23T03:26:41;6.77;;;6.27;;
3034;SDS011;1527;48.836;9.172;2022-07-23T03:29:10;6.00;;;5.47;;
3034;SDS011;1527;48.836;9.172;2022-07-23T03:31:42;5.27;;;4.83;;
3034;SDS011;1527;48.836;9.172;2022-07-23T03:34:12;7.33;;;6.63;;
3034;SDS011;1527;48.836;9.172;2022-07-23T03:36:41;6.13;;;5.63;;
3034;SDS011;1527;48.836;9.172;2022-07-23T03:39:10;6.03;;;5.23;;
3034;SDS011;1527;48.836;9.172;2022-07-23T03:41:40;6.40;;;5.80;;
3034;SDS011;1527;48.836;9.172;2022-07-23T03:44:10;6.23;;;5.63;;
3034;SDS011;1527;48.836;9.172;2022-07-23T03:46:42;6.60;;;5.90;;
3034;SDS011;1527;48.836;9.172;2022-07-23T03:49:11;9.13;;;5.73;;
3034;SDS011;1527;48.836;9.172;2022-07-23T03:51:40;6.73;;;6.13;;
3034;SDS011;1527;48.836;9.172;2022-07-23T03:54:09;6.00;;;5.47;;
3034;SDS011;1527;48.836;9.172;2022-07-23T03:56:39;6.43;;;5.83;;
3034;SDS011;1527;48.836;9.172;2022-07-23T03:59:08;5.83;;;5.30;;
3034;SDS011;1527;48.836;9.172;2022-07-23T04:01:39;6.83;;;6.23;;
3034;SDS011;1527;48.836;9.172;2022-07-23T04:04:08;6.90;;;6.20;;
3034;SDS011;1527;48.836;9.172;2022-07-23T04:06:40;6.43;;;5.90;;
3034;SDS011;1527;48.836;9.172;2022-07-23T04:09:09;6.70;;;6.10;;
3034;SDS011;1527;48.836;9.172;2022-07-23T04:11:38;6.83;;;6.20;;
3034;SDS011;1527;48.836;9.172;2022-07-23T04:14:08;7.10;;;6.20;;
3034;SDS011;1527;48.836;9.172;2022-07-23T04:16:39;6.87;;;6.17;;
3034;SDS011;1527;48.836;9.172;2022-07-23T04:19:08;9.30;;;6.20;;
3034;SDS011;1527;48.836;9.172;2022-07-23T04:21:50;6.63;;;6.03;;
3034;SDS011;1527;48.836;9.172;2022-07-23T04:24:19;7.93;;;6.43;;
3034;SDS011;1527;48.836;9.172;2022-07-23T04:26:49;6.67;;;6.07;;
3034;SDS011;1527;48.836;9.172;2022-07-23T04:29:18;6.40;;;5.80;;
3034;SDS011;1527;48.836;9.172;2022-07-23T04:31:48;9.80;;;6.57;;
3034;SDS011;1527;48.836;9.172;2022-07-23T04:34:18;7.20;;;6.50;;
3034;SDS011;1527;48.836;9.172;2022-07-23T04:36:48;7.10;;;6.27;;
3034;SDS011;1527;48.836;9.172;2022-07-23T04:39:17;7.10;;;6.40;;
3034;SDS011;1527;48.836;9.172;2022-07-23T04:41:47;7.20;;;6.60;;
3034;SDS011;1527;48.836;9.172;2022-07-23T04:44:16;7.27;;;6.67;;
3034;SDS011;1527;48.836;9.172;2022-07-23T04:46:46;7.33;;;6.63;;
3034;SDS011;1527;48.836;9.172;2022-07-23T04:49:19;7.00;;;6.40;;
3034;SDS011;1527;48.836;9.172;2022-07-23T04:51:48;6.53;;;5.93;;
3034;SDS011;1527;48.836;9.172;2022-07-23T04:54:17;7.10;;;6.40;;
3034;SDS011;1527;48.836;9.172;2022-07-23T04:56:47;9.23;;;6.80;;
3034;SDS011;1527;48.836;9.172;2022-07-23T04:59:17;7.33;;;6.73;;
3034;SDS011;1527;48.836;9.172;2022-07-23T05:01:51;6.77;;;6.23;;
3034;SDS011;1527;48.836;9.172;2022-07-23T05:04:20;10.57;;;6.83;;
3034;SDS011;1527;48.836;9.172;2022-07-23T05:06:49;6.53;;;6.03;;
3034;SDS011;1527;48.836;9.172;2022-07-23T05:09:19;6.90;;;6.30;;
3034;SDS011;1527;48.836;9.172;2022-07-23T05:11:48;6.83;;;6.20;;
3034;SDS011;1527;48.836;9.172;2022-07-23T05:14:17;6.80;;;6.30;;
3034;SDS011;1527;48.836;9.172;2022-07-23T05:16:46;9.47;;;7.63;;
3034;SDS011;1527;48.836;9.172;2022-07-23T05:19:22;10.60;;;7.07;;
3034;SDS011;1527;48.836;9.172;2022-07-23T05:21:52;7.40;;;6.60;;
3034;SDS011;1527;48.836;9.172;2022-07-23T05:24:22;7.30;;;6.60;;
3034;SDS011;1527;48.836;9.172;2022-07-23T05:26:52;9.97;;;6.57;;
3034;SDS011;1527;48.836;9.172;2022-07-23T05:29:22;6.80;;;6.23;;
3034;SDS011;1527;48.836;9.172;2022-07-23T05:31:51;6.70;;;6.00;;
3034;SDS011;1527;48.836;9.172;2022-07-23T05:34:23;6.37;;;5.87;;
3034;SDS011;1527;48.836;9.172;2022-07-23T05:36:52;7.10;;;6.40;;
3034;SDS011;1527;48.836;9.172;2022-07-23T05:39:21;7.13;;;6.43;;
3034;SDS011;1527;48.836;9.172;2022-07-23T05:41:51;7.20;;;6.50;;
3034;SDS011;1527;48.836;9.172;2022-07-23T05:44:20;6.77;;;6.27;;
3034;SDS011;1527;48.836;9.172;2022-07-23T05:46:49;7.33;;;6.73;;
3034;SDS011;1527;48.836;9.172;2022-07-23T05:49:21;7.17;;;6.57;;
3034;SDS011;1527;48.836;9.172;2022-07-23T05:52:10;6.93;;;6.33;;
3034;SDS011;1527;48.836;9.172;2022-07-23T05:54:57;6.93;;;6.33;;
3034;SDS011;1527;48.836;9.172;2022-07-23T05:57:26;7.80;;;7.00;;
3034;SDS011;1527;48.836;9.172;2022-07-23T05:59:55;7.30;;;6.60;;
3034;SDS011;1527;48.836;9.172;2022-07-23T06:02:26;8.00;;;7.27;;
3034;SDS011;1527;48.836;9.172;2022-07-23T06:04:57;7.37;;;6.77;;
3034;SDS011;1527;48.836;9.172;2022-07-23T06:07:30;7.57;;;6.87;;
3034;SDS011;1527;48.836;9.172;2022-07-23T06:09:59;7.90;;;7.10;;
3034;SDS011;1527;48.836;9.172;2022-07-23T06:12:29;7.47;;;6.80;;
3034;SDS011;1527;48.836;9.172;2022-07-23T06:14:58;8.73;;;7.40;;
3034;SDS011;1527;48.836;9.172;2022-07-23T06:17:27;7.93;;;7.00;;
3034;SDS011;1527;48.836;9.172;2022-07-23T06:19:58;7.60;;;6.93;;
3034;SDS011;1527;48.836;9.172;2022-07-23T06:22:28;8.43;;;7.23;;
3034;SDS011;1527;48.836;9.172;2022-07-23T06:24:57;8.37;;;7.43;;
3034;SDS011;1527;48.836;9.172;2022-07-23T06:27:26;9.10;;;6.80;;
3034;SDS011;1527;48.836;9.172;2022-07-23T06:29:56;8.20;;;7.20;;
3034;SDS011;1527;48.836;9.172;2022-07-23T06:32:25;8.10;;;7.30;;
3034;SDS011;1527;48.836;9.172;2022-07-23T06:34:54;8.47;;;7.57;;
3034;SDS011;1527;48.836;9.172;2022-07-23T06:37:24;7.57;;;6.90;;
3034;SDS011;1527;48.836;9.172;2022-07-23T06:39:54;8.30;;;7.50;;
3034;SDS011;1527;48.836;9.172;2022-07-23T06:42:23;9.50;;;7.10;;
3034;SDS011;1527;48.836;9.172;2022-07-23T06:44:57;9.00;;;8.13;;
3034;SDS011;1527;48.836;9.172;2022-07-23T06:47:28;10.73;;;7.77;;
3034;SDS011;1527;48.836;9.172;2022-07-23T06:49:57;8.03;;;7.33;;
3034;SDS011;1527;48.836;9.172;2022-07-23T06:52:28;11.47;;;8.00;;
3034;SDS011;1527;48.836;9.172;2022-07-23T06:54:58;9.97;;;9.10;;
3034;SDS011;1527;48.836;9.172;2022-07-23T06:57:27;9.60;;;7.27;;
3034;SDS011;1527;48.836;9.172;2022-07-23T07:00:01;8.73;;;7.87;;
3034;SDS011;1527;48.836;9.172;2022-07-23T07:02:30;9.73;;;8.23;;
3034;SDS011;1527;48.836;9.172;2022-07-23T07:05:00;8.00;;;7.20;;
3034;SDS011;1527;48.836;9.172;2022-07-23T07:07:34;8.90;;;8.10;;
3034;SDS011;1527;48.836;9.172;2022-07-23T07:10:04;8.07;;;7.30;;
3034;SDS011;1527;48.836;9.172;2022-07-23T07:12:41;8.50;;;7.80;;
3034;SDS011;1527;48.836;9.172;2022-07-23T07:15:11;8.83;;;8.00;;
3034;SDS011;1527;48.836;9.172;2022-07-23T07:17:40;12.47;;;8.23;;
3034;SDS011;1527;48.836;9.172;2022-07-23T07:20:10;12.00;;;7.77;;
3034;SDS011;1527;48.836;9.172;2022-07-23T07:22:41;8.47;;;7.47;;
3034;SDS011;1527;48.836;9.172;2022-07-23T07:25:10;8.17;;;7.37;;
3034;SDS011;1527;48.836;9.172;2022-07-23T07:27:39;14.03;;;8.70;;
3034;SDS011;1527;48.836;9.172;2022-07-23T07:30:11;10.53;;;8.50;;
3034;SDS011;1527;48.836;9.172;2022-07-23T07:32:41;8.90;;;8.10;;
3034;SDS011;1527;48.836;9.172;2022-07-23T07:35:26;8.73;;;7.93;;
3034;SDS011;1527;48.836;9.172;2022-07-23T07:37:57;10.67;;;9.27;;
3034;SDS011;1527;48.836;9.172;2022-07-23T07:40:28;10.00;;;9.10;;
3034;SDS011;1527;48.836;9.172;2022-07-23T07:43:00;8.53;;;7.70;;
3034;SDS011;1527;48.836;9.172;2022-07-23T07:45:31;9.80;;;8.50;;
3034;SDS011;1527;48.836;9.172;2022-07-23T07:48:00;9.50;;;8.13;;
3034;SDS011;1527;48.836;9.172;2022-07-23T07:50:30;9.30;;;8.50;;
3034;SDS011;1527;48.836;9.172;2022-07-23T07:53:04;9.27;;;8.37;;
3034;SDS011;1527;48.836;9.172;2022-07-23T07:55:33;8.90;;;8.00;;
3034;SDS011;1527;48.836;9.172;2022-07-23T07:58:04;9.07;;;8.10;;
3034;SDS011;1527;48.836;9.172;2022-07-23T08:00:36;10.37;;;9.23;;
3034;SDS011;1527;48.836;9.172;2022-07-23T08:03:06;8.83;;;8.13;;
3034;SDS011;1527;48.836;9.172;2022-07-23T08:05:35;8.50;;;7.77;;
3034;SDS011;1527;48.836;9.172;2022-07-23T08:08:06;8.90;;;8.00;;
3034;SDS011;1527;48.836;9.172;2022-07-23T08:10:36;9.80;;;8.90;;
3034;SDS011;1527;48.836;9.172;2022-07-23T08:13:06;8.40;;;7.60;;
3034;SDS011;1527;48.836;9.172;2022-07-23T08:15:35;8.53;;;7.77;;
3034;SDS011;1527;48.836;9.172;2022-07-23T08:18:04;9.60;;;7.80;;
3034;SDS011;1527;48.836;9.172;2022-07-23T08:20:34;8.63;;;7.83;;
3034;SDS011;1527;48.836;9.172;2022-07-23T08:23:04;9.47;;;7.87;;
3034;SDS011;1527;48.836;9.172;2022-07-23T08:25:37;8.10;;;7.40;;
3034;SDS011;1527;48.836;9.172;2022-07-23T08:28:10;10.30;;;7.03;;
3034;SDS011;1527;48.836;9.172;2022-07-23T08:30:41;9.17;;;7.83;;
3034;SDS011;1527;48.836;9.172;2022-07-23T08:33:12;8.53;;;6.90;;
3034;SDS011;1527;48.836;9.172;2022-07-23T08:35:59;9.07;;;8.17;;
3034;SDS011;1527;48.836;9.172;2022-07-23T08:38:33;9.70;;;8.70;;
3034;SDS011;1527;48.836;9.172;2022-07-23T08:41:03;8.23;;;7.53;;
3034;SDS011;1527;48.836;9.172;2022-07-23T08:43:33;8.53;;;7.73;;
3034;SDS011;1527;48.836;9.172;2022-07-23T08:46:03;10.47;;;7.73;;
3034;SDS011;1527;48.836;9.172;2022-07-23T08:48:34;8.13;;;7.43;;
3034;SDS011;1527;48.836;9.172;2022-07-23T08:51:07;8.30;;;7.50;;
3034;SDS011;1527;48.836;9.172;2022-07-23T08:53:40;6.47;;;5.90;;
3034;SDS011;1527;48.836;9.172;2022-07-23T08:56:13;6.93;;;6.23;;
3034;SDS011;1527;48.836;9.172;2022-07-23T08:58:42;7.07;;;6.37;;
3034;SDS011;1527;48.836;9.172;2022-07-23T09:01:12;7.27;;;5.80;;
3034;SDS011;1527;48.836;9.172;2022-07-23T09:03:43;6.17;;;5.67;;
3034;SDS011;1527;48.836;9.172;2022-07-23T09:06:13;5.93;;;5.40;;
3034;SDS011;1527;48.836;9.172;2022-07-23T09:08:44;6.70;;;6.10;;
3034;SDS011;1527;48.836;9.172;2022-07-23T09:11:15;6.77;;;6.10;;
3034;SDS011;1527;48.836;9.172;2022-07-23T09:13:48;6.50;;;5.87;;
3034;SDS011;1527;48.836;9.172;2022-07-23T09:16:23;6.70;;;6.10;;
3034;SDS011;1527;48.836;9.172;2022-07-23T09:18:55;7.57;;;6.97;;
3034;SDS011;1527;48.836;9.172;2022-07-23T09:21:27;6.20;;;5.60;;
3034;SDS011;1527;48.836;9.172;2022-07-23T09:23:59;6.33;;;5.83;;
3034;SDS011;1527;48.836;9.172;2022-07-23T09:26:32;8.33;;;6.00;;
3034;SDS011;1527;48.836;9.172;2022-07-23T09:29:07;6.57;;;5.97;;
3034;SDS011;1527;48.836;9.172;2022-07-23T09:31:49;8.97;;;5.93;;
3034;SDS011;1527;48.836;9.172;2022-07-23T09:34:21;7.57;;;6.73;;
3034;SDS011;1527;48.836;9.172;2022-07-23T09:36:52;7.30;;;6.60;;
3034;SDS011;1527;48.836;9.172;2022-07-23T09:39:28;7.87;;;6.40;;
3034;SDS011;1527;48.836;9.172;2022-07-23T09:42:12;7.50;;;6.80;;
3034;SDS011;1527;48.836;9.172;2022-07-23T09:44:46;7.40;;;6.70;;
3034;SDS011;1527;48.836;9.172;2022-07-23T09:47:16;7.67;;;6.70;;
3034;SDS011;1527;48.836;9.172;2022-07-23T09:49:57;7.10;;;6.07;;
3034;SDS011;1527;48.836;9.172;2022-07-23T09:52:29;7.70;;;6.90;;
3034;SDS011;1527;48.836;9.172;2022-07-23T09:55:04;7.37;;;6.50;;
3034;SDS011;1527;48.836;9.172;2022-07-23T09:57:34;6.90;;;6.30;;
3034;SDS011;1527;48.836;9.172;2022-07-23T10:00:06;7.80;;;7.00;;
3034;SDS011;1527;48.836;9.172;2022-07-23T10:02:39;8.10;;;7.30;;
3034;SDS011;1527;48.836;9.172;2022-07-23T10:05:29;7.33;;;6.63;;
3034;SDS011;1527;48.836;9.172;2022-07-23T10:08:02;9.23;;;7.90;;
3034;SDS011;1527;48.836;9.172;2022-07-23T10:10:52;7.53;;;6.73;;
3034;SDS011;1527;48.836;9.172;2022-07-23T10:13:47;6.60;;;5.97;;
3034;SDS011;1527;48.836;9.172;2022-07-23T10:16:32;8.73;;;6.00;;
3034;SDS011;1527;48.836;9.172;2022-07-23T10:19:04;9.53;;;6.80;;
3034;SDS011;1527;48.836;9.172;2022-07-23T10:21:34;6.97;;;6.30;;
3034;SDS011;1527;48.836;9.172;2022-07-23T10:24:20;6.50;;;5.90;;
3034;SDS011;1527;48.836;9.172;2022-07-23T10:27:09;7.67;;;6.57;;
3034;SDS011;1527;48.836;9.172;2022-07-23T10:30:10;6.17;;;5.67;;
3034;SDS011;1527;48.836;9.172;2022-07-23T10:32:50;6.80;;;6.20;;
3034;SDS011;1527;48.836;9.172;2022-07-23T10:35:33;7.90;;;6.80;;
3034;SDS011;1527;48.836;9.172;2022-07-23T10:38:11;7.20;;;6.50;;
3034;SDS011;1527;48.836;9.172;2022-07-23T10:40:59;7.40;;;6.30;;
3034;SDS011;1527;48.836;9.172;2022-07-23T10:43:32;8.60;;;7.33;;
3034;SDS011;1527;48.836;9.172;2022-07-23T10:46:21;9.17;;;6.93;;
3034;SDS011;1527;48.836;9.172;2022-07-23T10:49:22;7.53;;;6.83;;
3034;SDS011;1527;48.836;9.172;2022-07-23T10:52:18;11.13;;;8.10;;
3034;SDS011;1527;48.836;9.172;2022-07-23T10:54:55;8.40;;;6.90;;
3034;SDS011;1527;48.836;9.172;2022-07-23T10:58:04;7.80;;;7.10;;
3034;SDS011;1527;48.836;9.172;2022-07-23T11:00:36;7.40;;;6.70;;
3034;SDS011;1527;48.836;9.172;2022-07-23T11:03:27;7.60;;;6.90;;
3034;SDS011;1527;48.836;9.172;2022-07-23T11:06:04;7.77;;;7.03;;
3034;SDS011;1527;48.836;9.172;2022-07-23T11:08:36;7.70;;;7.00;;
3034;SDS011;1527;48.836;9.172;2022-07-23T11:11:09;7.50;;;6.90;;
3034;SDS011;1527;48.836;9.172;2022-07-23T11:13:46;6.77;;;6.27;;
3034;SDS011;1527;48.836;9.172;2022-07-23T11:16:19;7.07;;;6.37;;
3034;SDS011;1527;48.836;9.172;2022-07-23T11:18:54;7.70;;;6.90;;
3034;SDS011;1527;48.836;9.172;2022-07-23T11:21:47;7.90;;;7.20;;
3034;SDS011;1527;48.836;9.172;2022-07-23T11:24:19;8.20;;;7.30;;
3034;SDS011;1527;48.836;9.172;2022-07-23T11:27:02;7.00;;;6.40;;
3034;SDS011;1527;48.836;9.172;2022-07-23T11:29:45;7.83;;;7.13;;
3034;SDS011;1527;48.836;9.172;2022-07-23T11:32:30;6.63;;;6.13;;
3034;SDS011;1527;48.836;9.172;2022-07-23T11:35:19;7.47;;;6.77;;
3034;SDS011;1527;48.836;9.172;2022-07-23T11:38:05;7.73;;;6.30;;
3034;SDS011;1527;48.836;9.172;2022-07-23T11:40:36;7.30;;;6.60;;
3034;SDS011;1527;48.836;9.172;2022-07-23T11:43:06;7.00;;;6.33;;
3034;SDS011;1527;48.836;9.172;2022-07-23T11:45:37;7.33;;;6.67;;
3034;SDS011;1527;48.836;9.172;2022-07-23T11:48:15;8.03;;;7.33;;
3034;SDS011;1527;48.836;9.172;2022-07-23T11:50:46;7.83;;;7.13;;
3034;SDS011;1527;48.836;9.172;2022-07-23T11:53:21;8.57;;;7.77;;
3034;SDS011;1527;48.836;9.172;2022-07-23T11:56:02;8.13;;;7.40;;
3034;SDS011;1527;48.836;9.172;2022-07-23T11:58:33;7.30;;;6.70;;
3034;SDS011;1527;48.836;9.172;2022-07-23T12:01:07;7.40;;;6.80;;
3034;SDS011;1527;48.836;9.172;2022-07-23T12:03:49;7.97;;;7.27;;
3034;SDS011;1527;48.836;9.172;2022-07-23T12:06:26;8.80;;;7.10;;
3034;SDS011;1527;48.836;9.172;2022-07-23T12:08:55;7.37;;;6.80;;
3034;SDS011;1527;48.836;9.172;2022-07-23T12:11:24;7.00;;;6.20;;
3034;SDS011;1527;48.836;9.172;2022-07-23T12:13:55;8.33;;;7.43;;
3034;SDS011;1527;48.836;9.172;2022-07-23T12:16:26;7.23;;;6.53;;
3034;SDS011;1527;48.836;9.172;2022-07-23T12:18:57;7.10;;;6.50;;
3034;SDS011;1527;48.836;9.172;2022-07-23T12:21:26;7.47;;;6.77;;
3034;SDS011;1527;48.836;9.172;2022-07-23T12:24:05;9.50;;;7.80;;
3034;SDS011;1527;48.836;9.172;2022-07-23T12:26:35;8.80;;;7.90;;
3034;SDS011;1527;48.836;9.172;2022-07-23T12:29:05;7.73;;;7.03;;
3034;SDS011;1527;48.836;9.172;2022-07-23T12:31:34;8.33;;;7.63;;
3034;SDS011;1527;48.836;9.172;2022-07-23T12:34:14;8.07;;;7.37;;
3034;SDS011;1527;48.836;9.172;2022-07-23T12:36:43;7.90;;;7.20;;
3034;SDS011;1527;48.836;9.172;2022-07-23T12:39:20;6.80;;;6.20;;
3034;SDS011;1527;48.836;9.172;2022-07-23T12:41:58;7.63;;;7.03;;
3034;SDS011;1527;48.836;9.172;2022-07-23T12:44:28;9.00;;;8.20;;
3034;SDS011;1527;48.836;9.172;2022-07-23T12:47:04;7.90;;;7.20;;
3034;SDS011;1527;48.836;9.172;2022-07-23T12:49:35;8.17;;;7.40;;
3034;SDS011;1527;48.836;9.172;2022-07-23T12:52:15;8.07;;;7.37;;
3034;SDS011;1527;48.836;9.172;2022-07-23T12:54:46;9.90;;;7.87;;
3034;SDS011;1527;48.836;9.172;2022-07-23T12:57:15;8.00;;;7.30;;
3034;SDS011;1527;48.836;9.172;2022-07-23T12:59:45;9.10;;;7.27;;
3034;SDS011;1527;48.836;9.172;2022-07-23T13:02:14;9.77;;;8.27;;
3034;SDS011;1527;48.836;9.172;2022-07-23T13:04:49;7.87;;;7.10;;
3034;SDS011;1527;48.836;9.172;2022-07-23T13:07:19;8.73;;;7.93;;
3034;SDS011;1527;48.836;9.172;2022-07-23T13:09:49;7.47;;;6.80;;
3034;SDS011;1527;48.836;9.172;2022-07-23T13:12:19;7.50;;;6.90;;
3034;SDS011;1527;48.836;9.172;2022-07-23T13:14:48;8.50;;;7.70;;
3034;SDS011;1527;48.836;9.172;2022-07-23T13:17:18;9.00;;;8.10;;
3034;SDS011;1527;48.836;9.172;2022-07-23T13:19:50;8.50;;;7.60;;
3034;SDS011;1527;48.836;9.172;2022-07-23T13:22:19;7.93;;;7.27;;
3034;SDS011;1527;48.836;9.172;2022-07-23T13:24:48;10.13;;;8.00;;
3034;SDS011;1527;48.836;9.172;2022-07-23T13:27:18;7.97;;;7.17;;
3034;SDS011;1527;48.836;9.172;2022-07-23T13:29:48;8.00;;;7.40;;
3034;SDS011;1527;48.836;9.172;2022-07-23T13:32:20;9.47;;;8.60;;
3034;SDS011;1527;48.836;9.172;2022-07-23T13:34:51;13.43;;;12.03;;
3034;SDS011;1527;48.836;9.172;2022-07-23T13:37:21;10.50;;;8.90;;
3034;SDS011;1527;48.836;9.172;2022-07-23T13:39:51;12.00;;;8.40;;
3034;SDS011;1527;48.836;9.172;2022-07-23T13:42:20;13.70;;;9.67;;
3034;SDS011;1527;48.836;9.172;2022-07-23T13:44:50;9.87;;;8.97;;
3034;SDS011;1527;48.836;9.172;2022-07-23T13:47:20;9.07;;;8.27;;
3034;SDS011;1527;48.836;9.172;2022-07-23T13:49:52;10.63;;;9.63;;
3034;SDS011;1527;48.836;9.172;2022-07-23T13:52:21;11.33;;;9.70;;
3034;SDS011;1527;48.836;9.172;2022-07-23T13:54:51;10.13;;;9.17;;
3034;SDS011;1527;48.836;9.172;2022-07-23T13:57:21;9.07;;;8.27;;
3034;SDS011;1527;48.836;9.172;2022-07-23T13:59:50;9.57;;;8.43;;
3034;SDS011;1527;48.836;9.172;2022-07-23T14:02:19;10.40;;;8.60;;
3034;SDS011;1527;48.836;9.172;2022-07-23T14:04:53;9.93;;;9.03;;
3034;SDS011;1527;48.836;9.172;2022-07-23T14:07:22;9.47;;;8.50;;
3034;SDS011;1527;48.836;9.172;2022-07-23T14:09:52;9.63;;;8.73;;
3034;SDS011;1527;48.836;9.172;2022-07-23T14:12:21;9.27;;;8.37;;
3034;SDS011;1527;48.836;9.172;2022-07-23T14:14:54;10.73;;;9.73;;
3034;SDS011;1527;48.836;9.172;2022-07-23T14:17:24;9.60;;;8.80;;
3034;SDS011;1527;48.836;9.172;2022-07-23T14:19:55;9.37;;;8.37;;
3034;SDS011;1527;48.836;9.172;2022-07-23T14:22:26;11.90;;;9.00;;
3034;SDS011;1527;48.836;9.172;2022-07-23T14:24:55;9.13;;;8.00;;
3034;SDS011;1527;48.836;9.172;2022-07-23T14:27:27;10.30;;;8.77;;
3034;SDS011;1527;48.836;9.172;2022-07-23T14:29:59;9.50;;;8.70;;
3034;SDS011;1527;48.836;9.172;2022-07-23T14:32:30;8.87;;;8.07;;
3034;SDS011;1527;48.836;9.172;2022-07-23T14:35:04;9.97;;;8.53;;
3034;SDS011;1527;48.836;9.172;2022-07-23T14:37:38;8.20;;;7.50;;
3034;SDS011;1527;48.836;9.172;2022-07-23T14:40:09;7.80;;;7.20;;
3034;SDS011;1527;48.836;9.172;2022-07-23T14:42:39;8.30;;;7.60;;
3034;SDS011;1527;48.836;9.172;2022-07-23T14:45:09;9.77;;;8.87;;
3034;SDS011;1527;48.836;9.172;2022-07-23T14:47:39;10.13;;;8.13;;
3034;SDS011;1527;48.836;9.172;2022-07-23T14:50:14;9.07;;;8.13;;
3034;SDS011;1527;48.836;9.172;2022-07-23T14:52:43;9.90;;;8.40;;
3034;SDS011;1527;48.836;9.172;2022-07-23T14:55:15;9.67;;;8.70;;
3034;SDS011;1527;48.836;9.172;2022-07-23T14:57:45;8.43;;;7.73;;
3034;SDS011;1527;48.836;9.172;2022-07-23T15:00:15;8.97;;;8.07;;
3034;SDS011;1527;48.836;9.172;2022-07-23T15:02:50;8.93;;;8.03;;
3034;SDS011;1527;48.836;9.172;2022-07-23T15:05:22;9.73;;;8.83;;
3034;SDS011;1527;48.836;9.172;2022-07-23T15:07:53;9.47;;;8.27;;
3034;SDS011;1527;48.836;9.172;2022-07-23T15:10:22;8.67;;;7.97;;
3034;SDS011;1527;48.836;9.172;2022-07-23T15:12:51;8.67;;;7.90;;
3034;SDS011;1527;48.836;9.172;2022-07-23T15:15:21;8.67;;;7.87;;
3034;SDS011;1527;48.836;9.172;2022-07-23T15:17:53;9.73;;;8.67;;
3034;SDS011;1527;48.836;9.172;2022-07-23T15:20:24;8.70;;;7.90;;
3034;SDS011;1527;48.836;9.172;2022-07-23T15:23:13;10.23;;;8.37;;
3034;SDS011;1527;48.836;9.172;2022-07-23T15:25:43;8.00;;;7.40;;
3034;SDS011;1527;48.836;9.172;2022-07-23T15:28:17;8.50;;;7.53;;
3034;SDS011;1527;48.836;9.172;2022-07-23T15:30:48;9.37;;;8.50;;
3034;SDS011;1527;48.836;9.172;2022-07-23T15:33:18;8.40;;;7.80;;
3034;SDS011;1527;48.836;9.172;2022-07-23T15:35:50;8.83;;;8.03;;
3034;SDS011;1527;48.836;9.172;2022-07-23T15:38:22;9.30;;;7.80;;
3034;SDS011;1527;48.836;9.172;2022-07-23T15:40:53;9.27;;;8.30;;
3034;SDS011;1527;48.836;9.172;2022-07-23T15:43:24;8.90;;;8.10;;
3034;SDS011;1527;48.836;9.172;2022-07-23T15:45:54;8.73;;;8.03;;